EW7398 Weather Reports


Display with metric or nautical units.
time (UTC)temp
F
wind
direction
speed
MPH
gust
MPH
rain 1hr
in
rain 24hr
in
rain mn
in
humidity
%
barometer
mb
20240520060100 62 202 3.0 6.0 0.00 0.00 0.00 15 1006.9
20240520054523 61 197 3.0 5.0 0.00 0.00 0.00 16 1007.0
20240520053106 61 210 2.0 7.0 0.00 0.00 0.00 16 1007.1
20240520051552 61 192 4.0 6.0 0.00 0.00 0.00 18 1007.1
20240520050034 62 171 3.0 5.0 0.00 0.00 0.00 20 1007.1
20240520044551 63 175 4.0 6.0 0.00 0.00 0.00 19 1007.0
20240520043035 65 175 3.0 5.0 0.00 0.00 0.00 19 1006.9
20240520041538 66 195 3.0 7.0 0.00 0.00 0.00 18 1006.9
20240520040107 68 186 3.0 4.0 0.00 0.00 0.00 18 1006.7
20240520034542 69 186 2.0 4.0 0.00 0.00 0.00 17 1006.7
20240520033015 71 186 3.0 6.0 0.00 0.00 0.00 15 1006.7
20240520031559 71 181 3.0 7.0 0.00 0.00 0.00 15 1006.6
20240520030053 72 13 3.0 11.0 0.00 0.00 0.00 14 1006.5
20240520024520 73 12 4.0 9.0 0.00 0.00 0.00 14 1006.4
20240520023056 74 13 6.0 13.0 0.00 0.00 0.00 14 1006.5
20240520021554 74 13 7.0 18.0 0.00 0.00 0.00 13 1006.4
20240520020003 75 13 9.0 16.0 0.00 0.00 0.00 13 1006.4
20240520014551 76 13 7.0 16.0 0.00 0.00 0.00 13 1006.3
20240520013047 77 13 8.0 19.0 0.00 0.00 0.00 13 1006.2
20240520011523 78 13 7.0 17.0 0.00 0.00 0.00 13 1006.2
20240520010101 79 13 8.0 16.0 0.00 0.00 0.00 13 1006.2
20240520004525 80 13 9.0 17.0 0.00 0.00 0.00 12 1006.2
20240520003005 82 166 11.0 16.0 0.00 0.00 0.00 11 1006.3
20240520001547 83 205 11.0 20.0 0.00 0.00 0.00 11 1006.3
20240520000006 83 178 8.0 20.0 0.00 0.00 0.00 12 1006.3
20240519234542 84 183 7.0 19.0 0.00 0.00 0.00 12 1006.5
20240519233033 84 200 9.0 19.0 0.00 0.00 0.00 12 1006.4
20240519231524 84 173 8.0 20.0 0.00 0.00 0.00 12 1006.4
20240519230136 85 207 10.0 21.0 0.00 0.00 0.00 12 1006.4
20240519224524 85 161 7.0 20.0 0.00 0.00 0.00 12 1006.6
20240519223025 85 190 9.0 17.0 0.00 0.00 0.00 11 1006.7
20240519221545 84 238 9.0 19.0 0.00 0.00 0.00 12 1007.0
20240519220009 85 228 10.0 20.0 0.00 0.00 0.00 11 1007.1
20240519214550 85 22 7.0 20.0 0.00 0.00 0.00 12 1007.3
20240519213033 85 19 9.0 18.0 0.00 0.00 0.00 11 1007.5
20240519211525 85 17 11.0 20.0 0.00 0.00 0.00 12 1007.6
20240519210057 84 206 7.0 18.0 0.00 0.00 0.00 12 1007.6
20240519204513 84 244 9.0 18.0 0.00 0.00 0.00 13 1007.6
20240519203052 84 14 8.0 18.0 0.00 0.00 0.00 12 1007.8
20240519201545 83 238 6.0 16.0 0.00 0.00 0.00 12 1007.8
20240519200003 83 239 7.0 14.0 0.00 0.00 0.00 13 1008.0
20240519194540 82 242 8.0 17.0 0.00 0.00 0.00 12 1008.0
20240519193030 82 198 9.0 16.0 0.00 0.00 0.00 13 1008.1
20240519191508 81 13 5.0 17.0 0.00 0.00 0.00 16 1008.1
20240519190048 81 13 7.0 13.0 0.00 0.00 0.00 16 1008.3
20240519184605 80 14 7.0 14.0 0.00 0.00 0.00 15 1008.6
20240519183043 80 15 6.0 15.0 0.00 0.00 0.00 15 1008.6
20240519181522 79 192 5.0 12.0 0.00 0.00 0.00 16 1008.6
20240519180102 78 12 8.0 15.0 0.00 0.00 0.00 16 1008.7
20240519174518 77 157 5.0 9.0 0.00 0.00 0.00 16 1008.8
20240519173100 76 194 6.0 14.0 0.00 0.00 0.00 16 1008.9
20240519171540 74 178 5.0 15.0 0.00 0.00 0.00 19 1008.8
20240519170113 73 30 7.0 14.0 0.00 0.00 0.00 22 1008.9
20240519164536 72 172 5.0 13.0 0.00 0.00 0.00 22 1008.8
20240519163012 71 360 6.0 16.0 0.00 0.00 0.00 22 1008.7
20240519161550 70 12 8.0 17.0 0.00 0.00 0.00 23 1008.9
20240519160001 69 121 9.0 16.0 0.00 0.00 0.00 24 1008.9
20240519154542 68 18 6.0 14.0 0.00 0.00 0.00 24 1008.9
20240519153024 67 15 10.0 16.0 0.00 0.00 0.00 25 1009.0
20240519151556 65 12 10.0 16.0 0.00 0.00 0.00 26 1009.0
20240519150043 63 14 11.0 16.0 0.00 0.00 0.00 28 1009.0
20240519144550 61 15 8.0 12.0 0.00 0.00 0.00 32 1008.9
20240519143025 58 12 5.0 11.0 0.00 0.00 0.00 36 1008.8
20240519141517 56 12 4.0 9.0 0.00 0.00 0.00 39 1008.8
20240519140026 54 12 4.0 10.0 0.00 0.00 0.00 41 1008.7
20240519134553 52 13 3.0 10.0 0.00 0.00 0.00 43 1008.6
20240519133034 51 360 4.0 9.0 0.00 0.00 0.00 45 1008.4
20240519131511 50 360 4.0 6.0 0.00 0.00 0.00 44 1008.3
20240519130103 49 360 3.0 6.0 0.00 0.00 0.00 43 1008.3
20240519124517 49 148 4.0 5.0 0.00 0.00 0.00 42 1008.1
20240519123103 50 157 2.0 6.0 0.00 0.00 0.00 42 1008.0
20240519121537 50 157 3.0 6.0 0.00 0.00 0.00 42 1007.8
20240519120111 50 157 3.0 6.0 0.00 0.00 0.00 42 1007.9
20240519114532 50 157 3.0 6.0 0.00 0.00 0.00 40 1007.8
20240519113010 51 157 2.0 3.0 0.00 0.00 0.00 39 1007.7
20240519111557 51 157 0.0 2.0 0.00 0.00 0.00 40 1007.8
20240519110038 52 155 0.0 4.0 0.00 0.00 0.00 37 1007.7
20240519104557 52 145 2.0 4.0 0.00 0.00 0.00 37 1007.8
20240519103042 52 144 0.0 4.0 0.00 0.00 0.00 36 1007.8
20240519101530 52 147 2.0 5.0 0.00 0.00 0.00 36 1007.7
20240519100116 53 148 3.0 5.0 0.00 0.00 0.00 35 1007.6
20240519094533 53 144 2.0 4.0 0.00 0.00 0.00 34 1007.5
20240519093016 54 143 3.0 5.0 0.00 0.00 0.00 33 1007.4
20240519091510 55 144 0.0 1.0 0.00 0.00 0.00 33 1007.5
20240519090052 56 148 0.0 2.0 0.00 0.00 0.00 32 1007.7
20240519084525 56 147 0.0 3.0 0.00 0.00 0.00 31 1007.7
20240519083005 57 150 0.0 5.0 0.00 0.00 0.00 29 1007.6
20240519081552 58 238 1.0 3.0 0.00 0.00 0.00 30 1007.6
20240519080043 58 242 2.0 4.0 0.00 0.00 0.00 28 1007.7
20240519074606 59 244 0.0 3.0 0.00 0.00 0.00 28 1007.6
20240519074504 59 244 0.0 3.0 0.00 0.00 0.00 28 1007.7
20240519073102 59 244 1.0 5.0 0.00 0.00 0.00 26 1007.6
20240519071530 60 123 0.0 4.0 0.00 0.00 0.00 26 1007.8
20240519070113 61 121 0.0 3.0 0.00 0.00 0.00 26 1007.8
20240519064539 61 13 2.0 6.0 0.00 0.00 0.00 25 1007.8
20240519063022 61 11 2.0 8.0 0.00 0.00 0.00 24 1007.8
20240519061508 62 12 3.0 5.0 0.00 0.00 0.00 24 1007.8